^^
Meteo Knjazevac Station Historical Data
Daily Summary for May 2, 2021 Units:  Metric    English   Both
Daily Weekly Monthly Yearly Custom
  High: Low: Average:
Temperature: 9.1 °C -3.3 °C 1 °C
Dew Point: 5.6 °C -3.8 °C -0.1 °C
Humidity: 99% 77% 93%
Wind Speed: 11.3km/h 0km/h 2.9km/h
Wind Gust: 20.9km/h - -
Wind- - SSE
Pressure: 1023.6 hPa 1020.9 hPa -
Precipitation: 0 mm    
Historical Graphs
 
 
Tabular Data for May 2, 2021
Time Temperature Dew Point Pressure Wind Wind Speed Wind Gust Humidity Rainfall Rate (Hourly) solar Conditions
00:00 -0.4 °C -1.2 °C 1020.9 hPa West 3.2 km/h 9.7 km/h 94% 0 mm 0 W/m2
00:10 -0.5 °C -1.2 °C 1020.9 hPa West 3.2 km/h 8 km/h 95% 0 mm 0 W/m2
00:20 -0.5 °C -1.2 °C 1020.9 hPa WNW 4.8 km/h 9.7 km/h 95% 0 mm 0 W/m2
00:30 -0.3 °C -1 °C 1020.9 hPa WNW 4.8 km/h 8 km/h 95% 0 mm 0 W/m2
00:40 -0.3 °C -1 °C 1020.9 hPa WNW 3.2 km/h 8 km/h 95% 0 mm 0 W/m2
00:50 -0.5 °C -1.2 °C 1021.2 hPa WNW 4.8 km/h 8 km/h 95% 0 mm 0 W/m2
01:00 -0.5 °C -1.2 °C 1021.2 hPa West 4.8 km/h 8 km/h 95% 0 mm 0 W/m2
01:10 -0.5 °C -1.2 °C 1021.2 hPa WNW 1.6 km/h 8 km/h 95% 0 mm 0 W/m2
01:20 -0.7 °C -1.4 °C 1021.2 hPa West 3.2 km/h 6.4 km/h 95% 0 mm 0 W/m2
01:30 -0.9 °C -1.6 °C 1021.6 hPa WNW 3.2 km/h 6.4 km/h 95% 0 mm 0 W/m2
01:40 -0.7 °C -1.3 °C 1021.6 hPa Calm   6.4 km/h 96% 0 mm 0 W/m2
01:50 -0.7 °C -1.3 °C 1021.6 hPa WNW 3.2 km/h 6.4 km/h 96% 0 mm 0 W/m2
02:00 -0.8 °C -1.5 °C 1021.6 hPa Calm   4.8 km/h 95% 0 mm 0 W/m2
02:10 -0.9 °C -1.6 °C 1021.6 hPa Calm   4.8 km/h 95% 0 mm 0 W/m2
02:20 -1.1 °C -1.8 °C 1021.6 hPa WNW 3.2 km/h 6.4 km/h 95% 0 mm 0 W/m2
02:30 -1.1 °C -1.8 °C 1021.6 hPa NNW 1.6 km/h 4.8 km/h 95% 0 mm 0 W/m2
02:40 -1.2 °C -1.9 °C 1021.6 hPa West 1.6 km/h 4.8 km/h 95% 0 mm 0 W/m2
02:50 -1.3 °C -2 °C 1021.6 hPa WNW 1.6 km/h 3.2 km/h 95% 0 mm 0 W/m2
03:00 -1.5 °C -2.2 °C 1021.6 hPa WNW 1.6 km/h 4.8 km/h 95% 0 mm 0 W/m2
03:10 -1.6 °C -2.2 °C 1021.9 hPa NW 8 km/h 11.3 km/h 96% 0 mm 0 W/m2
03:20 -1.2 °C -1.8 °C 1021.9 hPa Calm   8 km/h 96% 0 mm 0 W/m2
03:30 -1.4 °C -1.9 °C 1021.9 hPa Calm   6.4 km/h 96% 0 mm 0 W/m2
03:40 -1.6 °C -2.3 °C 1021.9 hPa NW 3.2 km/h 3.2 km/h 95% 0 mm 0 W/m2
03:50 -1.7 °C -2.3 °C 1021.9 hPa North 1.6 km/h 4.8 km/h 96% 0 mm 0 W/m2
04:00 -1.8 °C -2.3 °C 1021.9 hPa Calm   3.2 km/h 96% 0 mm 0 W/m2
04:10 -1.9 °C -2.4 °C 1021.9 hPa NW 3.2 km/h 3.2 km/h 96% 0 mm 0 W/m2
04:20 -2 °C -2.7 °C 1021.9 hPa WNW 3.2 km/h 4.8 km/h 95% 0 mm 0 W/m2
04:30 -2.1 °C -2.7 °C 1021.9 hPa Calm   4.8 km/h 96% 0 mm 0 W/m2
04:40 -2.2 °C -2.8 °C 1021.9 hPa NW 3.2 km/h 4.8 km/h 96% 0 mm 0 W/m2
04:50 -2.3 °C -2.8 °C 1021.9 hPa NW 1.6 km/h 4.8 km/h 96% 0 mm 0 W/m2
05:00 -2.4 °C -2.9 °C 1021.9 hPa Calm   3.2 km/h 96% 0 mm 0 W/m2
05:10 -2.5 °C -3.1 °C 1021.9 hPa West 1.6 km/h 3.2 km/h 96% 0 mm 0 W/m2
05:20 -2.5 °C -3.1 °C 1021.9 hPa WNW 1.6 km/h 4.8 km/h 96% 0 mm 0 W/m2
05:30 -2.6 °C -3.2 °C 1022.2 hPa WNW 1.6 km/h 4.8 km/h 96% 0 mm 0 W/m2
05:40 -2.6 °C -3.2 °C 1022.2 hPa Calm   3.2 km/h 96% 0 mm 0 W/m2
05:50 -2.7 °C -3.2 °C 1022.2 hPa WNW 1.6 km/h 3.2 km/h 96% 0 mm 0 W/m2
06:00 -2.9 °C -3.4 °C 1022.2 hPa NW 1.6 km/h 3.2 km/h 96% 0 mm 0 W/m2
06:10 -2.9 °C -3.4 °C 1022.2 hPa Calm   3.2 km/h 96% 0 mm 0 W/m2
06:20 -3 °C -3.6 °C 1022.6 hPa Calm   3.2 km/h 96% 0 mm 0 W/m2
06:30 -3.1 °C -3.7 °C 1022.6 hPa Calm   3.2 km/h 96% 0 mm 0 W/m2
06:40 -3 °C -3.6 °C 1022.6 hPa North 3.2 km/h 8 km/h 96% 0 mm 0 W/m2
06:50 -3.1 °C -3.4 °C 1022.6 hPa Calm   6.4 km/h 98% 0 mm 0 W/m2
07:00 -3.2 °C -3.7 °C 1022.6 hPa NNE 1.6 km/h 4.8 km/h 96% 0 mm 0 W/m2
07:10 -3.2 °C -3.8 °C 1022.9 hPa NW 1.6 km/h 4.8 km/h 96% 0 mm 7 W/m2
07:20 -3.3 °C -3.8 °C 1022.9 hPa Calm   3.2 km/h 96% 0 mm 5 W/m2
07:30 -3.3 °C -3.8 °C 1022.9 hPa Calm   3.2 km/h 96% 0 mm 19 W/m2
07:40 -3.2 °C -3.5 °C 1022.9 hPa Calm   4.8 km/h 98% 0 mm 35 W/m2
07:50 -3.2 °C -3.5 °C 1023.2 hPa Calm   3.2 km/h 98% 0 mm 49 W/m2
08:00 -3.3 °C -3.6 °C 1023.2 hPa Calm   3.2 km/h 98% 0 mm 68 W/m2
08:10 -3.1 °C -3.4 °C 1023.2 hPa Calm   6.4 km/h 98% 0 mm 83 W/m2
08:20 -2.7 °C -2.9 °C 1023.2 hPa Calm   4.8 km/h 98% 0 mm 107 W/m2
08:30 -2.6 °C -2.9 °C 1023.2 hPa Calm   3.2 km/h 98% 0 mm 127 W/m2
08:40 -2.1 °C -2.4 °C 1023.2 hPa Calm   3.2 km/h 98% 0 mm 143 W/m2
08:50 -1.7 °C -1.9 °C 1023.6 hPa Calm   3.2 km/h 98% 0 mm 163 W/m2
09:00 -1.1 °C -1.4 °C 1023.6 hPa North 1.6 km/h 8 km/h 98% 0 mm 183 W/m2
09:10 -0.7 °C -1 °C 1023.6 hPa ENE 3.2 km/h 8 km/h 98% 0 mm 200 W/m2
09:20 -0.5 °C -0.8 °C 1023.6 hPa Calm   8 km/h 98% 0 mm 217 W/m2
09:30 -0.1 °C -0.7 °C 1023.6 hPa South 1.6 km/h 8 km/h 96% 0 mm 233 W/m2
09:40 0.5 °C -0.1 °C 1023.6 hPa NNE 4.8 km/h 12.9 km/h 96% 0 mm 248 W/m2
09:50 0.9 °C 0.2 °C 1023.6 hPa North 4.8 km/h 12.9 km/h 95% 0 mm 262 W/m2
10:00 1 °C 0.4 °C 1023.6 hPa NNE 3.2 km/h 12.9 km/h 96% 0 mm 179 W/m2
10:10 1 °C 0.4 °C 1023.2 hPa NW 1.6 km/h 9.7 km/h 96% 0 mm 286 W/m2
10:20 1.4 °C 0.8 °C 1023.2 hPa NE 8 km/h 12.9 km/h 96% 0 mm 297 W/m2
10:30 1.6 °C 1.1 °C 1023.2 hPa NNE 9.7 km/h 12.9 km/h 96% 0 mm 160 W/m2
10:40 1.6 °C 1.1 °C 1023.2 hPa North 1.6 km/h 12.9 km/h 96% 0 mm 172 W/m2
10:50 1.7 °C 1.4 °C 1023.2 hPa North 3.2 km/h 11.3 km/h 98% 0 mm 245 W/m2
11:00 1.9 °C 1.6 °C 1023.2 hPa NNE 8 km/h 12.9 km/h 98% 0 mm 324 W/m2
11:10 2.6 °C 2.3 °C 1022.9 hPa North 4.8 km/h 11.3 km/h 98% 0 mm 329 W/m2
11:20 3.4 °C 2.8 °C 1022.9 hPa NNE 4.8 km/h 12.9 km/h 96% 0 mm 332 W/m2
11:30 4 °C 3.1 °C 1022.9 hPa WNW 1.6 km/h 11.3 km/h 94% 0 mm 333 W/m2
11:40 4.8 °C 3.8 °C 1022.6 hPa NNE 1.6 km/h 11.3 km/h 93% 0 mm 332 W/m2
11:50 5.2 °C 3.9 °C 1022.2 hPa NNE 4.8 km/h 12.9 km/h 91% 0 mm 330 W/m2
12:00 5.7 °C 4.2 °C 1022.2 hPa North 8 km/h 16.1 km/h 90% 0 mm 327 W/m2
12:10 6.2 °C 4.5 °C 1022.2 hPa NE 4.8 km/h 12.9 km/h 89% 0 mm 323 W/m2
12:20 6.7 °C 4.8 °C 1021.9 hPa North 3.2 km/h 11.3 km/h 88% 0 mm 317 W/m2
12:30 7.1 °C 4.9 °C 1021.9 hPa NNE 3.2 km/h 11.3 km/h 86% 0 mm 309 W/m2
12:40 7.5 °C 5.2 °C 1021.6 hPa NNE 1.6 km/h 11.3 km/h 85% 0 mm 301 W/m2
12:50 7.9 °C 5.4 °C 1021.6 hPa NNE 4.8 km/h 16.1 km/h 84% 0 mm 291 W/m2
13:00 8.2 °C 5.5 °C 1021.6 hPa NNE 4.8 km/h 12.9 km/h 83% 0 mm 279 W/m2
13:10 8.4 °C 5.3 °C 1021.6 hPa NNE 8 km/h 12.9 km/h 81% 0 mm 267 W/m2
13:20 8.6 °C 5.5 °C 1021.6 hPa NNE 4.8 km/h 12.9 km/h 81% 0 mm 254 W/m2
13:30 8.8 °C 5.3 °C 1021.2 hPa North 4.8 km/h 14.5 km/h 79% 0 mm 239 W/m2
13:40 9 °C 5.6 °C 1021.2 hPa North 4.8 km/h 16.1 km/h 79% 0 mm 224 W/m2
13:50 9.1 °C 5.4 °C 1021.6 hPa North 8 km/h 12.9 km/h 78% 0 mm 207 W/m2
14:00 9.1 °C 5.3 °C 1021.6 hPa North 8 km/h 14.5 km/h 77% 0 mm 190 W/m2
14:10 9 °C 5.2 °C 1021.2 hPa NNE 4.8 km/h 16.1 km/h 77% 0 mm 172 W/m2
14:20 8.8 °C 5 °C 1021.2 hPa North 8 km/h 14.5 km/h 77% 0 mm 154 W/m2
14:30 8.4 °C 4.8 °C 1021.6 hPa North 4.8 km/h 12.9 km/h 78% 0 mm 135 W/m2
14:40 8 °C 4.6 °C 1021.6 hPa North 3.2 km/h 16.1 km/h 79% 0 mm 116 W/m2
14:50 7.5 °C 4.3 °C 1021.2 hPa NNE 11.3 km/h 20.9 km/h 80% 0 mm 97 W/m2
15:00 7 °C 3.9 °C 1021.6 hPa North 4.8 km/h 19.3 km/h 81% 0 mm 78 W/m2
15:10 6.7 °C 4 °C 1021.6 hPa North 9.7 km/h 14.5 km/h 83% 0 mm 59 W/m2
15:20 6.3 °C 3.6 °C 1021.6 hPa NNE 9.7 km/h 16.1 km/h 83% 0 mm 42 W/m2
15:30 5.9 °C 3.4 °C 1021.6 hPa NNE 9.7 km/h 16.1 km/h 84% 0 mm 25 W/m2
15:40 5.5 °C 3.2 °C 1021.6 hPa NNE 9.7 km/h 20.9 km/h 85% 0 mm 11 W/m2
15:50 5.2 °C 2.9 °C 1021.6 hPa North 3.2 km/h 12.9 km/h 85% 0 mm 13 W/m2
16:00 4.9 °C 2.7 °C 1021.6 hPa NNE 9.7 km/h 12.9 km/h 86% 0 mm 7 W/m2
16:10 4.5 °C 2.7 °C 1021.6 hPa NNE 9.7 km/h 16.1 km/h 88% 0 mm 0 W/m2
16:20 4.3 °C 2.5 °C 1021.6 hPa North 3.2 km/h 11.3 km/h 88% 0 mm 0 W/m2
16:30 4 °C 2.3 °C 1021.6 hPa NNE 8 km/h 12.9 km/h 89% 0 mm 0 W/m2
16:40 3.7 °C 2.1 °C 1021.6 hPa NNE 8 km/h 14.5 km/h 89% 0 mm 0 W/m2
16:50 3.5 °C 2 °C 1021.6 hPa NNE 9.7 km/h 14.5 km/h 90% 0 mm 0 W/m2
17:00 3.4 °C 1.9 °C 1021.9 hPa NNE 3.2 km/h 12.9 km/h 90% 0 mm 0 W/m2
17:10 3.2 °C 1.7 °C 1021.9 hPa NNE 3.2 km/h 9.7 km/h 90% 0 mm 0 W/m2
17:20 3 °C 1.5 °C 1021.9 hPa North 3.2 km/h 9.7 km/h 90% 0 mm 0 W/m2
17:30 3 °C 1.7 °C 1021.9 hPa NNE 3.2 km/h 9.7 km/h 91% 0 mm 0 W/m2
17:40 2.8 °C 1.5 °C 1021.9 hPa North 1.6 km/h 9.7 km/h 91% 0 mm 0 W/m2
17:50 2.5 °C 1.2 °C 1021.9 hPa WSW 1.6 km/h 4.8 km/h 91% 0 mm 0 W/m2
18:00 2 °C 0.7 °C 1021.9 hPa Calm   4.8 km/h 91% 0 mm 0 W/m2
18:10 1.8 °C 0.5 °C 1021.9 hPa Calm   3.2 km/h 91% 0 mm 0 W/m2
18:20 1.6 °C 0.6 °C 1021.9 hPa Calm   3.2 km/h 93% 0 mm 0 W/m2
18:30 1.4 °C 0.4 °C 1021.9 hPa SSW 1.6 km/h 4.8 km/h 93% 0 mm 0 W/m2
18:40 1.2 °C 0.2 °C 1021.9 hPa WNW 1.6 km/h 4.8 km/h 93% 0 mm 0 W/m2
18:50 0.8 °C -0.2 °C 1021.9 hPa WNW 1.6 km/h 4.8 km/h 93% 0 mm 0 W/m2
19:00 0.6 °C -0.4 °C 1021.9 hPa Calm   3.2 km/h 93% 0 mm 0 W/m2
19:10 0.4 °C -0.4 °C 1021.9 hPa West 1.6 km/h 4.8 km/h 94% 0 mm 0 W/m2
19:20 0.4 °C -0.3 °C 1021.9 hPa Calm   8 km/h 95% 0 mm 0 W/m2
19:30 0.2 °C -0.6 °C 1021.9 hPa WNW 3.2 km/h 6.4 km/h 95% 0 mm 0 W/m2
19:40 -0.1 °C -0.8 °C 1021.9 hPa North 1.6 km/h 4.8 km/h 95% 0 mm 0 W/m2
19:50 -0.1 °C -0.8 °C 1021.9 hPa Calm   4.8 km/h 95% 0 mm 0 W/m2
20:00 -0.2 °C -0.9 °C 1021.9 hPa Calm   8 km/h 95% 0 mm 0 W/m2
20:10 -0.5 °C -1.2 °C 1021.9 hPa WSW 3.2 km/h 6.4 km/h 95% 0 mm 0 W/m2
20:20 -0.6 °C -1.2 °C 1021.9 hPa WNW 3.2 km/h 9.7 km/h 96% 0 mm 0 W/m2
20:30 -0.7 °C -1.2 °C 1021.6 hPa Calm   4.8 km/h 96% 0 mm 0 W/m2
20:40 -0.7 °C -1.3 °C 1021.6 hPa Calm   8 km/h 96% 0 mm 0 W/m2
20:50 -0.8 °C -1.3 °C 1021.6 hPa West 3.2 km/h 4.8 km/h 96% 0 mm 0 W/m2
21:00 -0.9 °C -1.4 °C 1021.6 hPa Calm   6.4 km/h 96% 0 mm 0 W/m2
21:10 -0.9 °C -1.2 °C 1021.6 hPa Calm   3.2 km/h 98% 0 mm 0 W/m2
21:20 -1.1 °C -1.4 °C 1021.6 hPa WNW 1.6 km/h 4.8 km/h 98% 0 mm 0 W/m2
21:30 -1.2 °C -1.5 °C 1021.6 hPa Calm   3.2 km/h 98% 0 mm 0 W/m2
21:40 -1.2 °C -1.5 °C 1021.6 hPa Calm   3.2 km/h 98% 0 mm 0 W/m2
21:50 -1.2 °C -1.5 °C 1021.6 hPa West 3.2 km/h 6.4 km/h 98% 0 mm 0 W/m2
22:00 -1.1 °C -1.4 °C 1021.6 hPa Calm   3.2 km/h 98% 0 mm 0 W/m2
22:10 -1 °C -1.3 °C 1021.6 hPa WNW 1.6 km/h 3.2 km/h 98% 0 mm 0 W/m2
22:20 -0.9 °C -1.1 °C 1021.6 hPa West 3.2 km/h 4.8 km/h 99% 0 mm 0 W/m2
22:30 -0.8 °C -0.9 °C 1021.6 hPa West 3.2 km/h 4.8 km/h 99% 0 mm 0 W/m2
22:40 -0.8 °C -0.9 °C 1021.6 hPa West 3.2 km/h 6.4 km/h 99% 0 mm 0 W/m2
22:50 -0.6 °C -0.8 °C 1021.6 hPa WNW 1.6 km/h 4.8 km/h 99% 0 mm 0 W/m2
23:00 -0.5 °C -0.6 °C 1021.6 hPa West 1.6 km/h 4.8 km/h 99% 0 mm 0 W/m2
23:10 -0.4 °C -0.6 °C 1021.6 hPa WNW 3.2 km/h 6.4 km/h 99% 0 mm 0 W/m2
23:20 -0.3 °C -0.5 °C 1021.2 hPa West 3.2 km/h 6.4 km/h 99% 0 mm 0 W/m2
23:30 -0.4 °C -0.6 °C 1021.6 hPa West 4.8 km/h 8 km/h 99% 0 mm 0 W/m2
23:40 -0.3 °C -0.5 °C 1021.2 hPa WNW 3.2 km/h 8 km/h 99% 0 mm 0 W/m2
23:50 -0.3 °C -0.4 °C 1021.2 hPa West 1.6 km/h 4.8 km/h 99% 0 mm 0 W/m2
Knjazevac, Serbia
Compliments of Weather Underground - 2 mb